Airport, Ohio
Current Conditions -  °F | °C
As of 5:52 PM on Monday 20 Oct 2014 (Local Time) from KCVG Reporting Station
Scattered Clouds Scattered Clouds  
Wind Chill: 64°   Ceiling: Unl
Heat Index: 64°   Visibility: 10mi
Dew Point: 50°   Wind: 8mph
Humidity: 60%   Direction: 220°SW
Pressure: 29.86"   Gusts: NA
Location:  39.0588°N, 84.6513°W
Report Text: KCVG 202152Z 22007KT 10SM SCT035 18/10 A2986 RMK AO2 SLP108 T01780100
Loading
Personal Weather Stations






























Interactive Weather Map
Tropical Storm Tracking
New forecast layout! Learn more

10-Day Weather Forecast

Advertisements
Track Severe Weather on mobile